Time;durP1;ratioP1;P1;durP2;ratioP2;P2;SDS_P1;SDS_P2;PMS_P1;PMS_P2;Temp;Humidity;BMP_temperature;BMP_pressure;BME280_temperature;BME280_humidity;BME280_pressure;Samples;Min_cycle;Max_cycle;Signal;HPM_P1;HPM_P2
2023/02/28 00:01:32;;;;;;;14.45;6.95;;;;;;;3.02;59.35;100845.44;4490950;31;20085;-87
2023/02/28 00:03:57;;;;;;;14.45;6.62;;;;;;;3.02;59.36;100851.44;4470586;32;20115;-88
2023/02/28 00:06:23;;;;;;;12.52;5.50;;;;;;;3.11;59.35;100842.16;4484639;31;20141;-89
2023/02/28 00:08:49;;;;;;;12.37;6.90;;;;;;;3.14;59.35;100840.50;4473541;31;20104;-87
2023/02/28 00:11:15;;;;;;;10.32;6.80;;;;;;;3.09;59.36;100852.41;4477526;32;20165;-88
2023/02/28 00:13:42;;;;;;;13.13;6.35;;;;;;;3.14;59.36;100852.47;4470736;32;20132;-89
2023/02/28 00:16:09;;;;;;;13.93;5.82;;;;;;;3.22;59.36;100856.91;4485032;31;20088;-88
2023/02/28 00:18:35;;;;;;;9.77;5.60;;;;;;;3.08;59.35;100851.56;4471782;32;20123;-89
2023/02/28 00:21:00;;;;;;;11.07;5.18;;;;;;;3.31;59.37;100854.47;4466406;31;20100;-89
2023/02/28 00:23:26;;;;;;;11.82;5.85;;;;;;;3.15;59.35;100851.63;4464068;31;20140;-87
2023/02/28 00:25:52;;;;;;;15.27;7.40;;;;;;;3.14;59.35;100849.91;4489162;31;20129;-88
2023/02/28 00:28:17;;;;;;;14.38;5.85;;;;;;;3.35;59.37;100860.53;4484258;31;20108;-89
2023/02/28 00:30:43;;;;;;;12.10;5.10;;;;;;;3.37;59.36;100861.41;4484459;32;20385;-89
2023/02/28 00:33:08;;;;;;;10.80;5.62;;;;;;;3.26;59.36;100868.09;4484296;32;20144;-88
2023/02/28 00:35:33;;;;;;;11.57;5.47;;;;;;;3.27;59.37;100867.25;4484602;32;20096;-89
2023/02/28 00:37:59;;;;;;;10.55;5.30;;;;;;;3.24;59.36;100865.50;4484435;32;20139;-89
2023/02/28 00:40:24;;;;;;;9.30;5.47;;;;;;;3.27;59.36;100864.69;4463759;32;20176;-89
2023/02/28 00:42:50;;;;;;;11.43;5.93;;;;;;;3.37;59.36;100867.44;4481228;32;20113;-89
2023/02/28 00:45:15;;;;;;;11.43;5.18;;;;;;;3.53;59.38;100870.22;4485739;31;20084;-88
2023/02/28 00:47:41;;;;;;;15.60;6.07;;;;;;;3.50;59.38;100871.03;4484044;32;20130;-88
2023/02/28 00:50:07;;;;;;;10.57;5.25;;;;;;;3.35;59.36;100871.69;4484218;32;20133;-88
2023/02/28 00:52:32;;;;;;;7.22;4.93;;;;;;;3.27;59.36;100877.53;4471135;32;20083;-88
2023/02/28 00:54:57;;;;;;;13.38;5.65;;;;;;;3.33;59.37;100878.53;4479663;31;20092;-87
2023/02/28 00:57:23;;;;;;;11.38;5.43;;;;;;;3.37;59.36;100877.72;4486954;31;20380;-89
2023/02/28 00:59:48;;;;;;;11.52;5.03;;;;;;;3.40;59.37;100876.91;4479024;31;20114;-89
2023/02/28 01:02:14;;;;;;;11.35;4.95;;;;;;;3.45;59.37;100875.25;4472154;32;20128;-88
2023/02/28 01:04:39;;;;;;;9.75;5.43;;;;;;;3.39;59.37;100880.31;4470026;32;20112;-89
2023/02/28 01:07:05;;;;;;;10.38;5.20;;;;;;;3.41;59.37;100873.50;4483612;32;20121;-89
2023/02/28 01:09:30;;;;;;;10.98;5.15;;;;;;;3.53;59.38;100870.22;4477108;32;20124;-88
2023/02/28 01:11:55;;;;;;;12.18;5.80;;;;;;;3.49;59.37;100878.75;4475940;31;20169;-89
2023/02/28 01:14:21;;;;;;;10.02;5.40;;;;;;;3.59;59.38;100870.31;4477854;32;20425;-90
2023/02/28 01:16:46;;;;;;;11.82;4.87;;;;;;;3.55;59.38;100869.41;4469773;32;20480;-89
2023/02/28 01:19:12;;;;;;;9.20;5.05;;;;;;;3.58;59.38;100876.31;4476916;32;20428;-89
2023/02/28 01:21:37;;;;;;;14.25;6.07;;;;;;;3.64;59.39;100871.25;4470236;32;20072;-89
2023/02/28 01:24:03;;;;;;;10.88;5.28;;;;;;;3.66;59.38;100864.41;4470057;32;20107;-88
2023/02/28 01:26:29;;;;;;;13.13;6.03;;;;;;;3.61;59.38;100869.50;4482903;31;20156;-89
2023/02/28 01:28:54;;;;;;;9.93;5.10;;;;;;;3.69;59.39;100872.16;4470449;32;20211;-89
2023/02/28 01:31:20;;;;;;;13.82;6.28;;;;;;;3.55;59.38;100865.94;4483228;31;20104;-90
2023/02/28 01:33:45;;;;;;;12.93;6.03;;;;;;;3.51;59.38;100877.03;4476980;31;20100;-89
2023/02/28 01:36:16;;;;;;;13.65;6.05;;;;;;;3.67;59.38;100872.16;4486625;31;20365;-89
2023/02/28 01:38:41;;;;;;;14.30;6.80;;;;;;;3.57;59.38;100875.44;4457489;32;20172;-88
2023/02/28 01:41:07;;;;;;;20.35;6.85;;;;;;;3.68;59.38;100860.13;4469659;31;20165;-89
2023/02/28 01:44:03;;;;;;;13.10;6.37;;;;;;;3.88;59.40;100861.28;4456926;32;20104;-88
2023/02/28 01:46:29;;;;;;;13.45;5.70;;;;;;;3.74;59.39;100855.06;4460016;32;20154;-90
2023/02/28 01:49:05;;;;;;;13.48;6.72;;;;;;;3.74;59.39;100854.19;4470236;32;20138;-88
2023/02/28 01:51:46;;;;;;;15.15;5.75;;;;;;;3.66;59.38;100864.41;4469798;32;20114;-89
2023/02/28 01:54:14;;;;;;;14.57;6.68;;;;;;;3.64;59.39;100859.25;4482959;32;20088;-88
2023/02/28 01:56:43;;;;;;;12.15;6.00;;;;;;;3.66;59.38;100859.25;4478912;31;20462;-88
2023/02/28 01:59:08;;;;;;;14.43;6.60;;;;;;;3.67;59.39;100861.00;4467371;32;120979;-86
2023/02/28 02:01:34;;;;;;;13.62;6.37;;;;;;;3.71;59.39;100860.19;4483679;32;20122;-88
2023/02/28 02:04:01;;;;;;;11.77;5.90;;;;;;;3.68;59.39;100863.56;4482904;32;25138;-85
2023/02/28 02:06:45;;;;;;;12.57;6.07;;;;;;;3.79;59.39;100860.31;4457707;32;20100;-85
2023/02/28 02:09:11;;;;;;;12.43;6.00;;;;;;;3.67;59.38;100861.00;4473454;31;20104;-86
2023/02/28 02:11:37;;;;;;;11.32;5.80;;;;;;;3.68;59.38;100855.00;4471814;31;20088;-85
2023/02/28 02:14:08;;;;;;;10.60;6.25;;;;;;;3.71;59.39;100857.59;4479004;32;20140;-85
2023/02/28 02:16:52;;;;;;;11.32;5.90;;;;;;;3.75;59.39;100861.06;4482961;31;20126;-85
2023/02/28 02:20:03;;;;;;;13.48;5.93;;;;;;;3.68;59.39;100861.00;4485030;31;20114;-86
2023/02/28 02:22:53;;;;;;;10.38;5.18;;;;;;;3.67;59.39;100853.25;4460788;31;20460;-85
2023/02/28 02:25:35;;;;;;;14.48;5.75;;;;;;;3.73;59.39;100857.63;4487690;31;20084;-86
2023/02/28 02:28:04;;;;;;;11.45;5.62;;;;;;;3.80;59.39;100857.75;4483472;31;20206;-85
2023/02/28 02:30:57;;;;;;;11.82;5.72;;;;;;;3.87;59.40;100862.12;4484943;31;20149;-85
2023/02/28 02:33:56;;;;;;;9.55;5.35;;;;;;;3.88;59.39;100857.84;4485200;31;20096;-86
2023/02/28 02:36:25;;;;;;;10.75;4.78;;;;;;;3.93;59.40;100857.03;4485258;31;20482;-86
2023/02/28 02:39:08;;;;;;;17.35;5.95;;;;;;;3.92;59.40;100857.03;4483689;32;20104;-86
2023/02/28 02:41:48;;;;;;;13.70;6.03;;;;;;;3.99;59.41;100848.50;4483408;32;20092;-88
2023/02/28 02:44:16;;;;;;;;;;;;;;;3.79;59.39;100850.87;4467408;31;20098;-87
2023/02/28 02:46:45;;;;;;;9.50;5.57;;;;;;;4.04;59.40;100852.03;4485198;31;19967;-87
2023/02/28 02:49:24;;;;;;;11.30;5.72;;;;;;;3.93;59.40;100856.19;4470340;31;20088;-87
2023/02/28 02:51:49;;;;;;;12.63;5.87;;;;;;;3.86;59.40;100849.22;4471232;32;20138;-87
2023/02/28 02:54:20;;;;;;;15.57;6.45;;;;;;;3.92;59.40;100850.16;4483158;32;20440;-87
2023/02/28 02:56:46;;;;;;;11.60;6.12;;;;;;;4.03;59.40;100858.03;4470780;32;20084;-87
2023/02/28 02:59:13;;;;;;;9.25;5.50;;;;;;;4.17;59.41;100853.91;4470515;32;20097;-86
2023/02/28 03:01:39;;;;;;;12.15;6.28;;;;;;;4.14;59.41;100861.59;4457731;32;20124;-86
2023/02/28 03:04:13;;;;;;;9.90;5.60;;;;;;;4.04;59.40;100859.75;4480751;32;20568;-86
2023/02/28 03:06:39;;;;;;;15.48;5.60;;;;;;;4.32;59.42;100856.66;4471036;31;20459;-86
2023/02/28 03:09:04;;;;;;;11.45;5.93;;;;;;;4.30;59.42;100863.50;4470103;32;22774;-86
2023/02/28 03:11:30;;;;;;;13.77;5.85;;;;;;;4.03;59.40;100859.75;4470115;31;20118;-86
2023/02/28 03:14:04;;;;;;;11.98;4.97;;;;;;;4.08;59.41;100865.81;4470393;32;20092;-86
2023/02/28 03:16:54;;;;;;;8.68;4.90;;;;;;;4.27;59.42;100857.47;4484736;31;20093;-88
2023/02/28 03:19:38;;;;;;;9.52;4.72;;;;;;;4.12;59.42;100859.84;4483354;32;20089;-88
2023/02/28 03:22:19;;;;;;;8.35;4.28;;;;;;;4.20;59.42;100860.78;4473112;31;20130;-88
2023/02/28 03:24:48;;;;;;;11.23;4.80;;;;;;;4.11;59.40;100865.84;4497680;31;20104;-88
2023/02/28 03:27:38;;;;;;;10.57;4.60;;;;;;;4.12;59.40;100863.28;4484524;31;20092;-87
2023/02/28 03:30:17;;;;;;;12.05;4.62;;;;;;;4.31;59.42;100861.78;4486235;31;20099;-86
2023/02/28 03:33:05;;;;;;;8.98;3.87;;;;;;;4.21;59.42;100862.53;4478028;32;20161;-86
2023/02/28 03:35:32;;;;;;;8.85;4.03;;;;;;;4.01;59.40;100862.28;4457219;31;20114;-87
2023/02/28 03:38:05;;;;;;;8.00;4.25;;;;;;;4.03;59.40;100863.19;4470387;31;20100;-86
2023/02/28 03:40:32;;;;;;;10.73;4.07;;;;;;;4.17;59.41;100861.63;4457256;32;20108;-87
2023/02/28 03:43:02;;;;;;;10.80;3.83;;;;;;;4.35;59.43;100855.81;4470681;31;20128;-89
2023/02/28 03:45:29;;;;;;;8.45;4.05;;;;;;;4.20;59.42;100858.22;4476425;32;20106;-88
2023/02/28 03:48:01;;;;;;;9.35;3.87;;;;;;;3.97;59.40;100863.09;4472834;31;20085;-86
2023/02/28 03:50:32;;;;;;;8.88;4.18;;;;;;;4.05;59.40;100865.78;4470053;31;20115;-86
2023/02/28 03:53:04;;;;;;;9.07;3.87;;;;;;;4.03;59.40;100862.31;4483125;32;20131;-87
2023/02/28 03:55:32;;;;;;;7.70;3.83;;;;;;;4.11;59.41;100860.69;4471954;31;20408;-86
2023/02/28 03:58:19;;;;;;;7.00;3.97;;;;;;;4.10;59.41;100866.69;4457880;32;20080;-87
2023/02/28 04:00:47;;;;;;;7.15;3.60;;;;;;;4.26;59.41;100855.72;4483506;32;20104;-87
2023/02/28 04:03:12;;;;;;;10.73;3.28;;;;;;;4.34;59.42;100854.09;4469991;32;20092;-88
2023/02/28 04:05:52;;;;;;;10.07;3.90;;;;;;;4.17;59.41;100856.47;4469053;32;20130;-88
2023/02/28 04:08:18;;;;;;;8.50;3.97;;;;;;;4.31;59.43;100856.63;4471653;31;20114;-88
2023/02/28 04:10:50;;;;;;;5.70;3.78;;;;;;;4.34;59.42;100859.25;4465184;32;20127;-88
2023/02/28 04:13:16;;;;;;;8.52;3.50;;;;;;;4.26;59.42;100854.03;4480218;31;20122;-88
2023/02/28 04:15:41;;;;;;;7.60;3.10;;;;;;;4.35;59.43;100850.66;4472247;31;20079;-86
2023/02/28 04:18:07;;;;;;;6.07;3.05;;;;;;;4.28;59.42;100854.91;4469142;32;20159;-85
2023/02/28 04:20:32;;;;;;;6.57;2.62;;;;;;;4.28;59.42;100857.47;4482335;32;20085;-86
2023/02/28 04:22:58;;;;;;;8.05;3.42;;;;;;;4.39;59.42;100857.56;4483541;31;20130;-87
2023/02/28 04:25:23;;;;;;;8.90;3.62;;;;;;;4.38;59.43;100855.00;4460842;31;21907;-86
2023/02/28 04:27:49;;;;;;;6.03;3.00;;;;;;;4.31;59.42;100852.34;4456105;32;20485;-87
2023/02/28 04:30:14;;;;;;;11.12;3.90;;;;;;;4.22;59.42;100851.38;4468634;32;20446;-87
2023/02/28 04:32:39;;;;;;;8.05;3.60;;;;;;;4.13;59.42;100852.12;4475085;32;20433;-87
2023/02/28 04:35:05;;;;;;;8.18;3.80;;;;;;;4.35;59.43;100850.66;4482830;31;20111;-87
2023/02/28 04:37:34;;;;;;;8.55;4.05;;;;;;;4.34;59.42;100846.34;4478307;31;20390;-87
2023/02/28 04:40:00;;;;;;;7.43;3.67;;;;;;;4.43;59.43;100846.44;4472569;31;20158;-88
2023/02/28 04:42:26;;;;;;;8.10;3.47;;;;;;;4.30;59.42;100844.59;4480661;31;20123;-88
2023/02/28 04:44:51;;;;;;;6.78;3.20;;;;;;;4.24;59.42;100842.78;4488278;31;20087;-89
2023/02/28 04:47:17;;;;;;;7.35;3.15;;;;;;;4.19;59.41;100853.91;4472499;32;20084;-88
2023/02/28 04:49:42;;;;;;;9.25;4.10;;;;;;;4.21;59.42;100853.06;4461874;32;20137;-88
2023/02/28 04:52:10;;;;;;;8.82;4.10;;;;;;;4.37;59.43;100853.25;4480569;31;20450;-88
2023/02/28 04:54:35;;;;;;;9.93;4.15;;;;;;;4.19;59.41;100849.63;4488144;31;20584;-89
2023/02/28 04:57:01;;;;;;;10.25;3.75;;;;;;;4.15;59.41;100860.75;4488251;31;20132;-88
2023/02/28 04:59:26;;;;;;;6.25;3.55;;;;;;;4.30;59.42;100844.59;4488011;31;20144;-91
2023/02/28 05:01:52;;;;;;;7.20;3.30;;;;;;;4.28;59.42;100852.31;4471847;32;20169;-87
2023/02/28 05:04:18;;;;;;;9.13;3.95;;;;;;;4.34;59.42;100846.34;4474207;32;20088;-87
2023/02/28 05:06:43;;;;;;;8.98;3.85;;;;;;;4.28;59.43;100848.88;4485639;31;20088;-88
2023/02/28 05:09:11;;;;;;;11.07;4.28;;;;;;;4.14;59.41;100845.28;4462412;31;20168;-88
2023/02/28 05:11:37;;;;;;;9.55;3.83;;;;;;;4.06;59.41;100855.50;4487826;31;20103;-86
2023/02/28 05:14:04;;;;;;;9.07;4.10;;;;;;;4.23;59.42;100853.97;4487654;31;20144;-86
2023/02/28 05:16:30;;;;;;;8.30;4.12;;;;;;;4.24;59.41;100852.25;4480943;31;20164;-87
2023/02/28 05:18:55;;;;;;;7.43;3.65;;;;;;;4.22;59.42;100852.22;4474286;32;20140;-87
2023/02/28 05:21:26;;;;;;;9.80;4.78;;;;;;;4.05;59.41;100856.34;4459679;32;20130;-88
2023/02/28 05:23:52;;;;;;;7.70;3.53;;;;;;;4.05;59.41;100846.03;4476048;31;20078;-88
2023/02/28 05:26:18;;;;;;;8.68;3.70;;;;;;;4.10;59.41;100864.13;4472189;32;20141;-87
2023/02/28 05:28:43;;;;;;;9.43;4.50;;;;;;;4.27;59.42;100858.31;4461810;31;20111;-88
2023/02/28 05:31:12;;;;;;;10.82;4.30;;;;;;;4.45;59.43;100862.78;4473851;31;20148;-87
2023/02/28 05:33:37;;;;;;;10.55;3.85;;;;;;;4.53;59.44;100868.06;4482116;32;20452;-88
2023/02/28 05:36:03;;;;;;;7.47;3.62;;;;;;;4.47;59.43;100870.53;4469202;31;20189;-87
2023/02/28 05:38:29;;;;;;;9.73;4.45;;;;;;;4.53;59.43;100868.91;4471915;32;20108;-88
2023/02/28 05:40:54;;;;;;;10.35;4.10;;;;;;;4.26;59.41;100876.34;4471482;31;23522;-87
2023/02/28 05:43:19;;;;;;;9.07;4.93;;;;;;;4.40;59.42;100864.47;4463712;31;22704;-88
2023/02/28 05:45:45;;;;;;;10.23;4.68;;;;;;;4.12;59.42;100875.31;4484717;32;20139;-88
2023/02/28 05:48:10;;;;;;;8.57;4.20;;;;;;;4.35;59.43;100871.28;4486077;31;20149;-88
2023/02/28 05:50:36;;;;;;;9.20;4.72;;;;;;;4.11;59.41;100876.16;4480916;31;20202;-87
2023/02/28 05:53:01;;;;;;;10.57;4.62;;;;;;;3.97;59.40;100886.28;4501905;31;20463;-88
2023/02/28 05:55:27;;;;;;;9.02;4.65;;;;;;;3.99;59.40;100895.75;4487685;31;20119;-88
2023/02/28 05:57:52;;;;;;;7.82;4.22;;;;;;;4.01;59.40;100888.03;4485028;31;20105;-88
2023/02/28 06:00:18;;;;;;;8.45;3.87;;;;;;;4.05;59.41;100897.56;4484745;32;20154;-88
2023/02/28 06:02:43;;;;;;;7.22;3.85;;;;;;;3.98;59.41;100891.44;4484490;32;20132;-88
2023/02/28 06:05:16;;;;;;;9.88;4.47;;;;;;;4.26;59.41;100894.37;4471761;32;20469;-88
2023/02/28 06:07:42;;;;;;;11.43;4.35;;;;;;;4.41;59.43;100888.53;4472002;32;20135;-88
2023/02/28 06:10:09;;;;;;;7.97;3.83;;;;;;;4.66;59.45;100890.53;4476336;31;20101;-88
2023/02/28 06:12:34;;;;;;;8.57;3.78;;;;;;;4.44;59.43;100894.56;4484773;32;20107;-89
2023/02/28 06:14:59;;;;;;;10.73;4.90;;;;;;;4.70;59.44;100879.38;4471539;31;20136;-88
2023/02/28 06:17:25;;;;;;;9.57;4.15;;;;;;;4.57;59.44;100888.72;4477413;31;20139;-87
2023/02/28 06:19:50;;;;;;;8.82;4.37;;;;;;;4.66;59.44;100892.22;4492203;31;20473;-88
2023/02/28 06:22:16;;;;;;;10.45;3.78;;;;;;;4.52;59.43;100892.97;4477731;31;20079;-88
2023/02/28 06:24:41;;;;;;;8.82;4.40;;;;;;;4.56;59.43;100893.88;4486814;31;20148;-87
2023/02/28 06:27:06;;;;;;;10.40;3.92;;;;;;;4.59;59.44;100899.03;4461640;32;20093;-89
2023/02/28 06:29:33;;;;;;;9.13;4.07;;;;;;;4.57;59.44;100893.00;4479631;31;20126;-88
2023/02/28 06:31:58;;;;;;;11.57;4.70;;;;;;;4.82;59.45;100895.00;4487441;31;20083;-87
2023/02/28 06:34:24;;;;;;;10.65;4.53;;;;;;;4.88;59.46;100889.00;4489598;31;20455;-87
2023/02/28 06:36:50;;;;;;;17.90;4.53;;;;;;;4.75;59.45;100900.09;4487332;31;20149;-88
2023/02/28 06:39:15;;;;;;;10.18;4.45;;;;;;;4.74;59.45;100900.94;4487728;31;20167;-88
2023/02/28 06:41:41;;;;;;;9.68;4.43;;;;;;;4.58;59.44;100907.63;4487500;31;20109;-88
2023/02/28 06:44:17;;;;;;;8.80;4.12;;;;;;;4.67;59.44;100909.44;4472115;32;20141;-87
2023/02/28 06:46:42;;;;;;;8.70;4.10;;;;;;;4.85;59.45;100915.66;4465177;31;20131;-88
2023/02/28 06:49:08;;;;;;;8.07;4.12;;;;;;;4.84;59.45;100910.47;4473064;31;20160;-87
2023/02/28 06:51:34;;;;;;;6.40;4.00;;;;;;;4.77;59.45;100906.97;4473929;31;20083;-88
2023/02/28 06:53:59;;;;;;;8.05;3.85;;;;;;;4.76;59.45;100904.38;4481225;31;20127;-88
2023/02/28 06:56:25;;;;;;;8.48;3.60;;;;;;;4.64;59.45;100910.28;4487538;31;20204;-86
2023/02/28 06:58:52;;;;;;;11.52;4.93;;;;;;;4.90;59.45;100918.25;4471321;31;20354;-87
2023/02/28 07:01:18;;;;;;;12.18;4.60;;;;;;;4.67;59.44;100914.59;4477517;31;20092;-87
2023/02/28 07:03:44;;;;;;;9.65;4.30;;;;;;;4.69;59.44;100912.88;4487402;31;20123;-87
2023/02/28 07:06:09;;;;;;;7.90;3.65;;;;;;;4.99;59.46;100912.34;4484628;32;20542;-88
2023/02/28 07:08:35;;;;;;;10.93;4.30;;;;;;;4.87;59.46;100913.94;4468843;31;20132;-87
2023/02/28 07:11:01;;;;;;;11.15;5.00;;;;;;;4.81;59.45;100915.59;4484546;32;20092;-87
2023/02/28 07:13:26;;;;;;;10.65;4.07;;;;;;;5.22;59.47;100919.44;4471527;31;20335;-88
2023/02/28 07:16:03;;;;;;;12.45;4.45;;;;;;;5.27;59.48;100914.31;4485913;31;20143;-88
2023/02/28 07:18:29;;;;;;;6.75;3.10;;;;;;;5.36;59.48;100921.25;4482010;31;20122;-88
2023/02/28 07:20:54;;;;;;;10.40;4.60;;;;;;;5.43;59.48;100915.28;4476516;32;20088;-87
2023/02/28 07:23:20;;;;;;;7.43;3.45;;;;;;;5.47;59.49;100922.22;4487243;31;20081;-88
2023/02/28 07:25:45;;;;;;;10.93;4.30;;;;;;;5.61;59.50;100915.41;4463318;32;20143;-87
2023/02/28 07:28:12;;;;;;;10.93;3.62;;;;;;;5.55;59.49;100931.75;4458510;31;20152;-87
2023/02/28 07:30:37;;;;;;;10.32;3.35;;;;;;;5.64;59.50;100925.75;4470278;32;20444;-86
2023/02/28 07:33:03;;;;;;;6.40;3.20;;;;;;;5.61;59.50;100925.75;4460559;31;20114;-88
2023/02/28 07:35:29;;;;;;;7.82;4.00;;;;;;;5.44;59.48;100922.16;4477476;31;20096;-86
2023/02/28 07:37:54;;;;;;;9.35;3.35;;;;;;;5.65;59.50;100935.25;4464384;31;20159;-88
2023/02/28 07:40:20;;;;;;;9.00;4.07;;;;;;;5.50;59.49;100930.84;4484259;32;20378;-88
2023/02/28 07:42:45;;;;;;;10.52;3.62;;;;;;;5.63;59.50;100929.19;4483720;31;22000;-87
2023/02/28 07:45:11;;;;;;;9.23;3.25;;;;;;;5.61;59.50;100930.91;4470995;32;20536;-86
2023/02/28 07:47:38;;;;;;;8.60;3.45;;;;;;;6.08;59.53;100932.97;4481394;31;20122;-87
2023/02/28 07:50:04;;;;;;;5.65;3.00;;;;;;;6.25;59.53;100928.75;4464869;31;20155;-88
2023/02/28 07:52:29;;;;;;;6.70;3.22;;;;;;;6.27;59.54;100927.03;4486498;31;20088;-88
2023/02/28 07:54:54;;;;;;;8.38;2.90;;;;;;;6.19;59.53;100933.03;4494253;31;20168;-87
2023/02/28 07:57:20;;;;;;;5.32;2.55;;;;;;;6.39;59.54;100934.84;4483520;31;20526;-88
2023/02/28 07:59:45;;;;;;;5.37;2.28;;;;;;;6.57;59.54;100933.16;4483810;32;20136;-86
2023/02/28 08:02:15;;;;;;;6.22;2.42;;;;;;;6.71;59.56;100922.00;4484163;31;20097;-86
2023/02/28 08:04:41;;;;;;;5.82;2.40;;;;;;;6.70;59.55;100929.75;4479000;31;20163;-87
2023/02/28 08:07:06;;;;;;;5.22;2.37;;;;;;;6.67;59.56;100929.75;4484409;31;20456;-87
2023/02/28 08:09:32;;;;;;;5.20;2.12;;;;;;;6.85;59.56;100926.31;4477832;31;20083;-88
2023/02/28 08:11:57;;;;;;;5.32;2.28;;;;;;;7.04;59.58;100923.78;4483953;31;20196;-88
2023/02/28 08:14:23;;;;;;;3.42;1.92;;;;;;;6.92;59.57;100922.91;4485068;32;20127;-87
2023/02/28 08:16:48;;;;;;;4.68;2.15;;;;;;;7.03;59.58;100922.03;4472521;31;20164;-87
2023/02/28 08:19:13;;;;;;;3.62;2.00;;;;;;;6.94;59.58;100924.63;4476904;32;20114;-88
2023/02/28 08:21:39;;;;;;;253.88;78.95;;;;;;;6.86;59.57;100928.94;4476286;31;20473;-88
2023/02/28 08:24:05;;;;;;;8.02;4.22;;;;;;;6.73;59.56;100925.47;4487030;31;20119;-87
2023/02/28 08:26:31;;;;;;;8.57;3.33;;;;;;;6.60;59.55;100918.50;4482976;31;20108;-88
2023/02/28 08:28:56;;;;;;;5.72;3.22;;;;;;;6.45;59.54;100929.69;4485714;32;20531;-87
2023/02/28 08:31:22;;;;;;;6.15;3.72;;;;;;;6.52;59.55;100924.53;4485531;31;20500;-87
2023/02/28 08:33:50;;;;;;;16.98;11.52;;;;;;;6.51;59.55;100918.50;4486034;32;20093;-87
2023/02/28 08:36:16;;;;;;;7.35;5.18;;;;;;;6.56;59.55;100928.84;4485751;31;20104;-87
2023/02/28 08:38:41;;;;;;;4.90;2.67;;;;;;;6.44;59.55;100921.94;4488391;31;20135;-87
2023/02/28 08:41:09;;;;;;;7.20;3.12;;;;;;;6.38;59.54;100925.31;4488259;31;20085;-88
2023/02/28 08:43:34;;;;;;;6.82;2.35;;;;;;;6.53;59.55;100915.91;4472866;32;20117;-88
2023/02/28 08:46:00;;;;;;;6.72;2.95;;;;;;;6.48;59.54;100923.66;4485648;31;20141;-87
2023/02/28 08:48:29;;;;;;;3.70;2.35;;;;;;;6.34;59.54;100931.34;4466662;31;20154;-88
2023/02/28 08:50:59;;;;;;;5.80;3.00;;;;;;;6.24;59.53;100928.72;4475222;31;20119;-88
2023/02/28 08:53:24;;;;;;;5.95;3.22;;;;;;;6.29;59.54;100920.12;4488583;31;20192;-87
2023/02/28 08:56:05;;;;;;;6.30;4.00;;;;;;;6.40;59.54;100926.22;4487956;31;20092;-87
2023/02/28 08:58:31;;;;;;;5.18;2.70;;;;;;;6.54;59.55;100923.66;4491415;31;20088;-87
2023/02/28 09:00:56;;;;;;;6.75;3.05;;;;;;;6.62;59.55;100923.69;4471667;32;20148;-87
2023/02/28 09:03:22;;;;;;;5.55;3.17;;;;;;;6.49;59.54;100920.22;4469091;31;20136;-87
2023/02/28 09:05:57;;;;;;;6.53;2.83;;;;;;;6.61;59.55;100920.22;4485569;32;20100;-88
2023/02/28 09:08:24;;;;;;;11.70;3.20;;;;;;;6.43;59.54;100927.97;4483254;31;20402;-87
2023/02/28 09:10:49;;;;;;;5.87;2.83;;;;;;;6.47;59.55;100922.78;4462469;32;20542;-87
2023/02/28 09:13:15;;;;;;;3.80;2.17;;;;;;;6.58;59.55;100927.12;4496550;31;20104;-87
2023/02/28 09:15:40;;;;;;;5.75;2.55;;;;;;;6.47;59.54;100922.78;4495847;31;20108;-87
2023/02/28 09:18:05;;;;;;;7.37;3.25;;;;;;;6.60;59.56;100926.25;4472570;31;20172;-88
2023/02/28 09:20:31;;;;;;;7.43;3.30;;;;;;;6.70;59.56;100920.28;4485879;32;20125;-87
2023/02/28 09:22:56;;;;;;;7.50;3.20;;;;;;;6.78;59.56;100921.16;4485723;31;20130;-88
2023/02/28 09:25:22;;;;;;;6.80;2.55;;;;;;;6.81;59.56;100922.88;4478916;31;20205;-87
2023/02/28 09:27:47;;;;;;;5.68;2.42;;;;;;;6.93;59.57;100917.72;4472505;32;20398;-87
2023/02/28 09:30:13;;;;;;;5.57;2.47;;;;;;;7.13;59.58;100915.16;4484925;32;20580;-87
2023/02/28 09:32:38;;;;;;;5.80;2.92;;;;;;;7.09;59.58;100919.47;4466210;32;20111;-87
2023/02/28 09:35:04;;;;;;;6.72;3.25;;;;;;;7.01;59.57;100922.91;4473370;31;20130;-88
2023/02/28 09:37:30;;;;;;;6.20;3.50;;;;;;;7.22;59.59;100922.94;4491918;31;20103;-88
2023/02/28 09:39:56;;;;;;;10.95;3.10;;;;;;;7.38;59.60;100921.22;4485154;32;20089;-88
2023/02/28 09:42:26;;;;;;;6.65;3.05;;;;;;;7.62;59.61;100925.53;4485375;32;20112;-88
2023/02/28 09:44:51;;;;;;;5.85;3.28;;;;;;;7.70;59.61;100919.44;4487097;31;20164;-88
2023/02/28 09:47:40;;;;;;;7.65;3.78;;;;;;;7.85;59.63;100923.75;4477882;32;20096;-88
2023/02/28 09:50:29;;;;;;;7.47;2.87;;;;;;;7.83;59.62;100927.22;4478780;31;20106;-88
2023/02/28 09:52:54;;;;;;;7.90;3.50;;;;;;;8.11;59.64;100918.50;4488570;31;20111;-87
2023/02/28 09:55:40;;;;;;;6.25;3.10;;;;;;;8.04;59.63;100918.50;4487979;31;20139;-88
2023/02/28 09:58:05;;;;;;;7.62;3.12;;;;;;;8.26;59.65;100915.81;4488597;31;20084;-88
2023/02/28 10:00:33;;;;;;;9.68;3.72;;;;;;;8.25;59.65;100908.06;4470057;31;20182;-88
2023/02/28 10:03:29;;;;;;;5.75;3.37;;;;;;;8.40;59.66;100904.56;4487939;31;20127;-88
2023/02/28 10:06:05;;;;;;;10.02;3.85;;;;;;;8.60;59.67;100893.22;4487453;31;20385;-88
2023/02/28 10:08:52;;;;;;;5.45;3.15;;;;;;;8.59;59.67;100899.28;4490191;31;20511;-89
2023/02/28 10:11:20;;;;;;;8.55;3.53;;;;;;;8.74;59.68;100890.53;4464065;32;20606;-88
2023/02/28 10:13:50;;;;;;;6.85;2.83;;;;;;;8.55;59.66;100895.00;4482826;31;20100;-89
2023/02/28 10:16:32;;;;;;;11.12;4.07;;;;;;;8.55;59.66;100891.53;4480228;31;20123;-88
2023/02/28 10:19:13;;;;;;;5.47;2.75;;;;;;;8.79;59.67;100893.97;4485561;31;20110;-88
2023/02/28 10:21:42;;;;;;;7.37;3.00;;;;;;;8.79;59.67;100888.78;4486456;31;20060;-88
2023/02/28 10:24:28;;;;;;;6.68;3.47;;;;;;;8.79;59.67;100886.19;4485092;32;20123;-88
2023/02/28 10:26:58;;;;;;;7.70;3.17;;;;;;;8.89;59.69;100890.44;4486555;31;20157;-88
2023/02/28 10:29:24;;;;;;;5.68;2.95;;;;;;;9.00;59.69;100886.91;4459457;32;20159;-88
2023/02/28 10:31:49;;;;;;;6.07;3.05;;;;;;;9.16;59.70;100883.31;4486317;31;20083;-88
2023/02/28 10:34:14;;;;;;;5.60;3.37;;;;;;;9.19;59.71;100885.88;4487861;31;20425;-88
2023/02/28 10:36:42;;;;;;;8.05;3.67;;;;;;;9.21;59.71;100879.78;4486722;31;20175;-87
2023/02/28 10:39:37;;;;;;;7.55;3.58;;;;;;;9.35;59.71;100874.50;4479258;32;20150;-88
2023/02/28 10:42:03;;;;;;;7.62;4.07;;;;;;;9.38;59.71;100869.25;4493107;31;20456;-87
2023/02/28 10:44:28;;;;;;;8.38;3.53;;;;;;;9.52;59.72;100862.19;4475082;31;20476;-88
2023/02/28 10:46:54;;;;;;;9.20;3.10;;;;;;;9.50;59.72;100865.69;4485924;32;20433;-88
2023/02/28 10:49:22;;;;;;;9.15;3.50;;;;;;;9.63;59.72;100867.28;4485001;31;20124;-87
2023/02/28 10:51:51;;;;;;;12.98;3.72;;;;;;;9.70;59.73;100852.47;4484828;32;20126;-87
2023/02/28 10:54:43;;;;;;;6.12;3.42;;;;;;;9.34;59.71;100859.78;4482429;31;20108;-87
2023/02/28 10:57:17;;;;;;;5.80;2.90;;;;;;;9.73;59.74;100860.25;4483135;31;20096;-87
2023/02/28 10:59:43;;;;;;;8.45;2.47;;;;;;;9.32;59.71;100864.13;4487493;31;20100;-87
2023/02/28 11:02:28;;;;;;;4.97;2.80;;;;;;;9.28;59.71;100858.97;4490083;31;20114;-87
2023/02/28 11:04:54;;;;;;;8.30;3.37;;;;;;;9.12;59.70;100864.28;4480439;32;20465;-87
2023/02/28 11:07:21;;;;;;;6.55;3.08;;;;;;;9.14;59.70;100857.34;4484902;31;20200;-87
2023/02/28 11:09:49;;;;;;;10.60;2.90;;;;;;;9.22;59.70;100857.28;4467094;31;20171;-88
2023/02/28 11:12:28;;;;;;;13.23;3.40;;;;;;;9.38;59.71;100855.41;4487216;31;20123;-87
2023/02/28 11:14:59;;;;;;;5.22;2.80;;;;;;;9.32;59.71;100858.06;4492667;31;20517;-87
2023/02/28 11:17:26;;;;;;;6.20;3.15;;;;;;;9.34;59.72;100858.91;4474209;31;20108;-87
2023/02/28 11:19:54;;;;;;;5.40;2.87;;;;;;;9.40;59.71;100858.84;4471652;31;20108;-88
2023/02/28 11:22:31;;;;;;;4.15;2.47;;;;;;;9.49;59.72;100857.03;4464839;31;20202;-89
2023/02/28 11:24:59;;;;;;;6.87;3.50;;;;;;;9.63;59.72;100851.69;4471886;31;20131;-88
2023/02/28 11:27:30;;;;;;;7.07;3.78;;;;;;;9.50;59.72;100850.09;4458988;32;20112;-88
2023/02/28 11:29:56;;;;;;;5.35;2.87;;;;;;;9.81;59.74;100851.50;4497421;31;20134;-88
2023/02/28 11:32:23;;;;;;;4.80;2.60;;;;;;;9.90;59.74;100847.06;4471527;32;20080;-88
2023/02/28 11:35:14;;;;;;;5.25;2.70;;;;;;;10.03;59.75;100844.28;4481487;32;20480;-89
2023/02/28 11:37:39;;;;;;;6.18;2.67;;;;;;;9.83;59.73;100852.34;4484269;31;20150;-88